createdAt,value
2019-05-06T00:04:05.882Z,0.0
2019-05-06T00:14:18.834Z,0.0
2019-05-06T00:24:34.668Z,0.0
2019-05-06T00:34:43.714Z,0.0
2019-05-06T00:44:54.693Z,0.0
2019-05-06T00:55:06.054Z,0.0
2019-05-06T01:05:19.099Z,0.0
2019-05-06T01:15:34.257Z,0.0
2019-05-06T01:25:44.130Z,0.0
2019-05-06T01:35:58.107Z,0.0
2019-05-06T01:46:13.901Z,0.0
2019-05-06T01:56:56.990Z,0.0
2019-05-06T02:07:10.388Z,0.0
2019-05-06T02:17:24.069Z,0.0
2019-05-06T02:27:37.828Z,0.0
2019-05-06T02:37:51.469Z,0.0
2019-05-06T02:48:04.335Z,0.0
2019-05-06T02:58:14.868Z,0.0
2019-05-06T03:08:26.083Z,0.0
2019-05-06T03:19:13.189Z,0.0
2019-05-06T03:46:45.593Z,0.0
2019-05-06T03:56:59.148Z,0.0
2019-05-06T04:07:13.803Z,5.0
2019-05-06T04:18:45.144Z,5.0
2019-05-06T04:28:59.108Z,10.0
2019-05-06T04:39:13.429Z,20.0
2019-05-06T04:49:27.205Z,25.0
2019-05-06T04:59:38.400Z,40.0
2019-05-06T05:09:53.527Z,60.0
2019-05-06T05:20:03.106Z,75.0
2019-05-06T05:30:16.133Z,90.0
2019-05-06T05:41:02.870Z,130.0
2019-05-06T05:51:12.849Z,160.0
2019-05-06T06:02:03.450Z,210.0
2019-05-06T06:12:18.605Z,210.0
2019-05-06T06:22:34.779Z,210.0
2019-05-06T06:32:48.252Z,220.0
2019-05-06T06:43:33.052Z,240.0
2019-05-06T06:54:19.980Z,300.0
2019-05-06T07:04:33.530Z,310.0
2019-05-06T07:27:56.718Z,405.0
2019-05-06T07:50:19.845Z,320.0
2019-05-06T08:00:33.539Z,300.0
2019-05-06T08:10:45.343Z,380.0
2019-05-06T08:20:59.904Z,645.0
2019-05-06T08:31:44.993Z,795.0
2019-05-06T08:42:32.859Z,740.0
2019-05-06T08:52:43.306Z,785.0
2019-05-06T09:03:29.207Z,1545.0
2019-05-06T09:13:43.438Z,1655.0
2019-05-06T09:23:57.891Z,1745.0
2019-05-06T09:34:12.982Z,730.0
2019-05-06T09:44:58.353Z,2285.0
2019-05-06T09:55:13.564Z,2055.0
2019-05-06T10:06:06.537Z,1920.0
2019-05-06T10:16:23.805Z,500.0
2019-05-06T10:26:40.179Z,710.0
2019-05-06T10:37:28.297Z,970.0
2019-05-06T10:48:26.297Z,685.0
2019-05-06T10:58:43.920Z,2255.0
2019-05-06T11:08:55.947Z,415.0
2019-05-06T11:20:10.573Z,1495.0
2019-05-06T11:32:56.935Z,610.0
2019-05-06T11:45:43.287Z,760.0
2019-05-06T11:56:58.177Z,1125.0
2019-05-06T12:08:04.669Z,615.0
2019-05-06T12:19:56.145Z,645.0
2019-05-06T12:30:08.221Z,860.0
2019-05-06T12:40:36.489Z,2230.0
2019-05-06T12:50:52.342Z,2130.0
2019-05-06T13:01:03.964Z,545.0
2019-05-06T13:11:13.384Z,350.0
2019-05-06T13:21:27.281Z,315.0
2019-05-06T13:31:43.329Z,335.0
2019-05-06T13:43:23.891Z,175.0
2019-05-06T13:53:40.417Z,180.0
2019-05-06T14:04:32.566Z,260.0
2019-05-06T14:14:43.084Z,300.0
2019-05-06T14:25:36.257Z,185.0
2019-05-06T14:35:47.964Z,70.0
2019-05-06T14:46:35.036Z,85.0
2019-05-06T14:57:12.462Z,195.0
2019-05-06T15:07:52.799Z,95.0
2019-05-06T15:18:52.923Z,90.0
2019-05-06T15:29:03.229Z,100.0
2019-05-06T15:39:33.552Z,115.0
2019-05-06T15:50:01.029Z,75.0
2019-05-06T16:00:15.780Z,70.0
2019-05-06T16:10:29.500Z,70.0
2019-05-06T16:20:40.965Z,55.0
2019-05-06T16:31:56.848Z,80.0
2019-05-06T16:42:12.809Z,60.0
2019-05-06T16:52:24.127Z,35.0
2019-05-06T17:02:56.548Z,20.0
2019-05-06T17:12:54.932Z,15.0
2019-05-06T17:23:08.157Z,5.0
2019-05-06T17:33:22.383Z,5.0
2019-05-06T17:43:59.679Z,5.0
2019-05-06T17:54:13.310Z,15.0
2019-05-06T18:04:27.318Z,5.0
2019-05-06T18:14:43.410Z,5.0
2019-05-06T18:40:39.071Z,0.0
2019-05-06T20:04:09.325Z,0.0
2019-05-06T20:15:54.513Z,0.0
2019-05-06T20:26:52.652Z,0.0
2019-05-06T20:37:16.157Z,0.0
2019-05-06T20:47:38.395Z,0.0
2019-05-06T20:58:42.173Z,0.0
2019-05-06T21:10:25.846Z,0.0
2019-05-06T21:22:09.797Z,0.0
2019-05-06T21:32:56.348Z,0.0
2019-05-06T21:44:05.908Z,0.0
2019-05-06T21:54:53.262Z,0.0
2019-05-06T22:05:34.193Z,0.0
2019-05-06T22:16:57.926Z,0.0
2019-05-06T22:28:16.080Z,0.0
2019-05-06T22:39:02.386Z,0.0
2019-05-06T22:49:16.522Z,0.0
2019-05-06T22:59:58.859Z,0.0
2019-05-06T23:11:06.478Z,0.0
2019-05-06T23:22:04.200Z,0.0
2019-05-06T23:32:37.656Z,0.0
2019-05-06T23:43:29.146Z,0.0
2019-05-06T23:53:42.601Z,0.0
